createdAt,value
2022-12-27T00:00:03.033Z,27.65
2022-12-27T00:02:30.377Z,23.80
2022-12-27T00:04:57.647Z,23.38
2022-12-27T00:07:24.856Z,26.83
2022-12-27T00:09:53.704Z,22.67
2022-12-27T00:12:20.922Z,23.02
2022-12-27T00:14:48.351Z,24.98
2022-12-27T00:17:15.933Z,23.27
2022-12-27T00:19:43.259Z,23.52
2022-12-27T00:22:10.471Z,24.50
2022-12-27T00:24:37.725Z,24.45
2022-12-27T00:27:05.016Z,24.73
2022-12-27T00:29:32.237Z,21.15
2022-12-27T00:31:59.490Z,22.85
2022-12-27T00:34:26.699Z,24.77
2022-12-27T00:36:53.873Z,25.38
2022-12-27T00:39:21.259Z,21.27
2022-12-27T00:41:48.453Z,21.40
2022-12-27T00:44:15.740Z,24.08
2022-12-27T00:46:43.033Z,27.27
2022-12-27T00:49:10.354Z,29.25
2022-12-27T00:51:37.631Z,21.63
2022-12-27T00:54:04.999Z,22.38
2022-12-27T00:56:33.645Z,22.30
2022-12-27T00:59:03.827Z,26.40
2022-12-27T01:01:35.454Z,17.67
2022-12-27T01:04:03.993Z,19.88
2022-12-27T01:06:33.029Z,18.80
2022-12-27T01:09:01.556Z,20.00
2022-12-27T01:11:30.148Z,18.42
2022-12-27T01:14:00.242Z,23.40
2022-12-27T01:16:29.836Z,18.27
2022-12-27T01:18:58.227Z,16.10
2022-12-27T01:21:26.022Z,13.98
2022-12-27T01:23:53.773Z,14.13
2022-12-27T01:26:22.732Z,11.77
2022-12-27T01:28:52.057Z,10.10
2022-12-27T01:31:22.501Z,12.45
2022-12-27T01:33:53.476Z,12.07
2022-12-27T01:36:22.970Z,12.18
2022-12-27T01:38:50.242Z,9.75
2022-12-27T01:41:37.034Z,12.55
2022-12-27T01:44:49.747Z,8.20
2022-12-27T01:47:23.143Z,10.38
2022-12-27T01:50:26.356Z,8.98
2022-12-27T01:53:14.498Z,7.90
2022-12-27T01:55:53.561Z,9.98
2022-12-27T01:58:31.471Z,9.30
2022-12-27T02:00:59.238Z,10.02
2022-12-27T02:03:33.017Z,9.95
2022-12-27T02:06:03.221Z,7.22
2022-12-27T02:11:39.773Z,9.07
2022-12-27T02:14:07.296Z,10.00
2022-12-27T02:16:34.565Z,9.35
2022-12-27T02:19:01.871Z,9.30
2022-12-27T02:21:52.262Z,9.35
2022-12-27T02:24:20.661Z,9.20
2022-12-27T02:26:52.960Z,7.53
2022-12-27T02:29:25.536Z,12.40
2022-12-27T02:32:01.695Z,9.20
2022-12-27T02:34:35.073Z,8.27
2022-12-27T02:37:08.212Z,9.95
2022-12-27T02:39:41.240Z,8.90
2022-12-27T02:42:29.272Z,9.02
2022-12-27T02:45:15.717Z,8.88
2022-12-27T02:48:03.522Z,7.97
2022-12-27T02:51:17.487Z,10.20
2022-12-27T02:53:47.783Z,11.02
2022-12-27T02:57:09.814Z,8.52
2022-12-27T03:00:34.146Z,7.53
2022-12-27T03:03:29.419Z,9.30
2022-12-27T03:06:36.688Z,12.75
2022-12-27T03:09:39.017Z,8.25
2022-12-27T03:12:33.770Z,9.20
2022-12-27T03:15:33.481Z,8.18
2022-12-27T03:18:10.637Z,8.43
2022-12-27T03:20:58.922Z,8.40
2022-12-27T03:23:46.802Z,8.13
2022-12-27T03:26:15.736Z,14.55
2022-12-27T03:29:05.005Z,7.87
2022-12-27T03:31:57.134Z,10.00
2022-12-27T03:34:35.778Z,8.13
2022-12-27T03:37:25.810Z,7.40
2022-12-27T03:40:05.019Z,7.85
2022-12-27T03:42:59.195Z,9.35
2022-12-27T03:45:54.565Z,7.80
2022-12-27T03:48:27.192Z,8.98
2022-12-27T03:50:57.719Z,8.32
2022-12-27T03:53:40.758Z,9.60
2022-12-27T03:56:09.371Z,8.73
2022-12-27T03:58:36.661Z,10.55
2022-12-27T04:01:03.978Z,11.05
2022-12-27T04:03:31.319Z,9.15
2022-12-27T04:05:58.665Z,8.95
2022-12-27T04:08:44.271Z,9.18
2022-12-27T04:11:30.047Z,10.10
2022-12-27T04:14:15.750Z,7.15
2022-12-27T04:17:01.439Z,9.40
2022-12-27T04:19:47.309Z,7.90
2022-12-27T04:22:33.141Z,10.05
2022-12-27T04:25:18.820Z,7.72
2022-12-27T04:28:04.596Z,8.38
2022-12-27T04:30:51.553Z,8.48
2022-12-27T04:33:37.444Z,11.40
2022-12-27T04:36:06.599Z,7.95
2022-12-27T04:38:33.967Z,10.50
2022-12-27T04:41:19.816Z,11.00
2022-12-27T04:44:05.720Z,11.20
2022-12-27T04:46:51.896Z,11.70
2022-12-27T04:49:44.346Z,8.38
2022-12-27T04:52:33.555Z,10.50
2022-12-27T04:55:22.521Z,8.60
2022-12-27T04:57:51.258Z,18.20
2022-12-27T05:00:39.057Z,7.95
2022-12-27T05:03:21.309Z,7.18
2022-12-27T05:05:51.161Z,7.30
2022-12-27T05:08:38.889Z,8.75
2022-12-27T05:11:26.832Z,7.30
2022-12-27T05:13:59.979Z,6.65
2022-12-27T05:16:38.285Z,6.82
2022-12-27T05:19:07.729Z,7.60
2022-12-27T05:21:40.411Z,6.70
2022-12-27T05:24:26.509Z,8.57
2022-12-27T05:26:56.153Z,7.13
2022-12-27T05:29:23.477Z,7.57
2022-12-27T05:31:50.649Z,8.20
2022-12-27T05:34:18.037Z,11.23
2022-12-27T05:36:45.604Z,7.22
2022-12-27T05:39:12.822Z,8.35
2022-12-27T05:41:40.122Z,9.40
2022-12-27T05:44:07.843Z,7.05
2022-12-27T05:46:36.489Z,6.63
2022-12-27T05:49:03.895Z,6.78
2022-12-27T05:51:31.082Z,6.97
2022-12-27T05:53:58.332Z,9.25
2022-12-27T05:56:25.760Z,9.52
2022-12-27T05:58:54.065Z,8.52
2022-12-27T06:01:21.324Z,8.18
2022-12-27T06:03:48.624Z,9.55
2022-12-27T06:06:15.965Z,9.15
2022-12-27T06:08:43.339Z,7.82
2022-12-27T06:11:13.389Z,7.93
2022-12-27T06:13:42.160Z,8.20
2022-12-27T06:16:11.466Z,11.75
2022-12-27T06:18:40.320Z,13.80
2022-12-27T06:21:13.614Z,14.75
2022-12-27T06:23:42.649Z,16.88
2022-12-27T06:26:14.176Z,12.73
2022-12-27T06:28:41.521Z,11.63
2022-12-27T06:31:10.948Z,9.10
2022-12-27T06:33:38.385Z,10.27
2022-12-27T06:36:11.045Z,11.18
2022-12-27T06:38:38.992Z,11.02
2022-12-27T06:41:09.013Z,10.55
2022-12-27T06:43:36.358Z,12.02
2022-12-27T06:46:07.085Z,11.73
2022-12-27T06:48:34.360Z,11.75
2022-12-27T06:51:05.289Z,56.78
2022-12-27T06:53:33.230Z,99.88
2022-12-27T06:56:09.766Z,30.40
2022-12-27T06:58:37.449Z,84.40
2022-12-27T07:01:12.277Z,224.48
2022-12-27T07:03:40.405Z,746.60
2022-12-27T07:06:10.312Z,484.52
2022-12-27T07:08:38.230Z,454.63
2022-12-27T07:11:09.048Z,215.38
2022-12-27T07:13:38.503Z,26.95
2022-12-27T07:16:11.152Z,8.13
2022-12-27T07:18:39.058Z,8.52
2022-12-27T07:21:07.795Z,9.60
2022-12-27T07:23:35.871Z,6.85
2022-12-27T07:26:05.013Z,14.88
2022-12-27T07:28:32.961Z,13.70
2022-12-27T07:31:00.663Z,13.32
2022-12-27T07:33:27.925Z,16.90
2022-12-27T07:36:00.853Z,8.93
2022-12-27T07:38:28.205Z,8.48
2022-12-27T07:40:59.545Z,9.73
2022-12-27T07:43:30.330Z,9.80
2022-12-27T07:46:12.345Z,10.65
2022-12-27T07:48:40.232Z,8.77
2022-12-27T07:51:07.963Z,9.13
2022-12-27T07:53:35.903Z,10.95
2022-12-27T07:56:12.118Z,11.60
2022-12-27T07:58:41.429Z,10.98
2022-12-27T08:01:10.250Z,15.15
2022-12-27T08:03:38.489Z,9.48
2022-12-27T08:06:07.089Z,9.35
2022-12-27T08:08:43.936Z,9.73
2022-12-27T08:11:12.621Z,14.57
2022-12-27T08:13:40.067Z,11.35
2022-12-27T08:16:07.795Z,12.60
2022-12-27T08:18:35.045Z,8.65
2022-12-27T08:21:02.296Z,8.25
2022-12-27T08:23:29.545Z,7.30
2022-12-27T08:25:57.335Z,13.10
2022-12-27T08:28:24.775Z,8.55
2022-12-27T08:30:52.235Z,7.65
2022-12-27T08:33:20.149Z,8.32
2022-12-27T08:35:55.096Z,8.63
2022-12-27T08:38:22.579Z,5.95
2022-12-27T08:40:49.990Z,6.03
2022-12-27T08:43:17.205Z,7.50
2022-12-27T08:45:44.601Z,8.27
2022-12-27T08:48:12.035Z,6.03
2022-12-27T08:50:39.535Z,4.95
2022-12-27T08:53:06.898Z,7.60
2022-12-27T08:55:34.645Z,6.47
2022-12-27T08:58:06.130Z,5.03
2022-12-27T09:00:37.231Z,3.85
2022-12-27T09:03:04.544Z,6.57
2022-12-27T09:05:34.213Z,3.35
2022-12-27T09:08:05.714Z,6.03
2022-12-27T09:10:32.991Z,3.63
2022-12-27T09:13:00.224Z,4.38
2022-12-27T09:15:27.617Z,3.08
2022-12-27T09:17:54.830Z,3.45
2022-12-27T09:20:22.116Z,2.78
2022-12-27T09:22:49.794Z,2.95
2022-12-27T09:25:17.148Z,2.80
2022-12-27T09:27:44.439Z,2.47
2022-12-27T09:30:12.083Z,5.93
2022-12-27T09:32:39.354Z,8.40
2022-12-27T09:35:06.878Z,2.30
2022-12-27T09:37:34.119Z,3.10
2022-12-27T09:40:01.423Z,3.13
2022-12-27T09:42:56.908Z,3.22
2022-12-27T09:45:42.564Z,3.00
2022-12-27T09:51:00.081Z,1.80
2022-12-27T09:53:34.658Z,2.88
2022-12-27T09:56:02.006Z,3.05
2022-12-27T09:58:38.342Z,3.88
2022-12-27T10:01:29.602Z,2.38
2022-12-27T10:03:57.218Z,2.08
2022-12-27T10:06:48.923Z,2.72
2022-12-27T10:09:50.059Z,1.88
2022-12-27T10:12:31.768Z,1.48
2022-12-27T10:15:23.556Z,2.35
2022-12-27T10:18:10.151Z,2.80
2022-12-27T10:20:46.527Z,2.05
2022-12-27T10:23:25.630Z,4.95
2022-12-27T10:25:58.620Z,3.05
2022-12-27T10:28:43.709Z,4.80
2022-12-27T10:31:23.884Z,4.43
2022-12-27T10:33:52.559Z,1.67
2022-12-27T10:36:24.957Z,1.70
2022-12-27T10:38:52.302Z,2.78
2022-12-27T10:41:50.187Z,1.60
2022-12-27T10:44:17.691Z,2.00
2022-12-27T10:46:51.892Z,2.65
2022-12-27T10:49:32.687Z,2.38
2022-12-27T10:52:23.076Z,4.63
2022-12-27T10:54:56.116Z,3.22
2022-12-27T10:57:32.409Z,1.77
2022-12-27T11:00:23.505Z,6.07
2022-12-27T11:02:57.131Z,5.38
2022-12-27T11:05:27.275Z,4.55
2022-12-27T11:07:55.105Z,2.47
2022-12-27T11:10:23.865Z,1.88
2022-12-27T11:13:03.320Z,1.58
2022-12-27T11:15:34.418Z,3.00
2022-12-27T11:18:09.962Z,3.28
2022-12-27T11:20:51.089Z,2.55
2022-12-27T11:23:21.049Z,4.22
2022-12-27T11:28:33.942Z,2.80
2022-12-27T11:31:13.980Z,3.88
2022-12-27T11:33:47.430Z,3.45
2022-12-27T11:36:23.985Z,3.53
2022-12-27T11:38:51.432Z,1.98
2022-12-27T11:41:46.723Z,3.80
2022-12-27T11:44:16.951Z,3.17
2022-12-27T11:47:06.044Z,5.80
2022-12-27T11:49:50.379Z,2.10
2022-12-27T11:52:23.371Z,2.78
2022-12-27T11:55:09.262Z,2.83
2022-12-27T11:57:55.208Z,1.50
2022-12-27T12:00:27.280Z,3.75
2022-12-27T12:03:16.408Z,5.13
2022-12-27T12:06:08.856Z,2.35
2022-12-27T12:09:11.689Z,2.28
2022-12-27T12:12:17.217Z,3.38
2022-12-27T12:14:59.268Z,2.83
2022-12-27T12:17:47.949Z,2.20
2022-12-27T12:20:36.578Z,1.98
2022-12-27T12:23:47.309Z,4.28
2022-12-27T12:26:20.719Z,3.60
2022-12-27T12:29:16.163Z,3.25
2022-12-27T12:32:02.159Z,2.85
2022-12-27T12:34:38.662Z,2.70
2022-12-27T12:37:28.034Z,2.78
2022-12-27T12:40:25.794Z,3.95
2022-12-27T12:43:23.644Z,5.10
2022-12-27T12:46:00.008Z,3.55
2022-12-27T12:48:53.595Z,2.63
2022-12-27T12:51:26.999Z,2.67
2022-12-27T12:54:09.362Z,3.25
2022-12-27T12:56:58.469Z,3.53
2022-12-27T12:59:34.719Z,3.33
2022-12-27T13:02:23.784Z,5.35
2022-12-27T13:05:06.231Z,3.58
2022-12-27T13:07:42.413Z,7.15
2022-12-27T13:10:42.965Z,8.13
2022-12-27T13:13:19.581Z,4.10
2022-12-27T13:16:08.094Z,8.45
2022-12-27T13:18:54.185Z,4.40
2022-12-27T13:21:57.762Z,8.02
2022-12-27T13:24:44.077Z,4.40
2022-12-27T13:27:30.235Z,4.70
2022-12-27T13:30:20.620Z,6.47
2022-12-27T13:33:26.809Z,11.60
2022-12-27T13:36:00.238Z,8.25
2022-12-27T13:38:55.383Z,3.97
2022-12-27T13:41:35.915Z,3.80
2022-12-27T13:44:44.011Z,2.83
2022-12-27T13:47:36.623Z,5.00
2022-12-27T13:50:10.039Z,4.50
2022-12-27T13:52:46.205Z,4.20
2022-12-27T13:55:36.585Z,4.00
2022-12-27T13:58:09.459Z,3.50
2022-12-27T14:00:58.624Z,3.78
2022-12-27T14:03:41.135Z,4.18
2022-12-27T14:06:23.744Z,2.85
2022-12-27T14:08:57.056Z,6.20
2022-12-27T14:11:53.563Z,3.70
2022-12-27T14:14:21.691Z,4.68
2022-12-27T14:16:59.709Z,5.53
2022-12-27T14:20:11.946Z,7.45
2022-12-27T14:22:54.581Z,6.72
2022-12-27T14:25:43.768Z,4.47
2022-12-27T14:28:48.804Z,3.53
2022-12-27T14:31:34.900Z,5.45
2022-12-27T14:34:17.312Z,2.83
2022-12-27T14:37:06.300Z,3.00
2022-12-27T14:40:07.534Z,3.27
2022-12-27T14:43:20.258Z,3.30
2022-12-27T14:46:06.395Z,2.33
2022-12-27T14:49:04.596Z,4.15
2022-12-27T14:54:46.591Z,3.15
2022-12-27T14:57:24.545Z,3.30
2022-12-27T15:00:13.380Z,8.48
2022-12-27T15:03:08.326Z,5.15
2022-12-27T15:05:35.698Z,3.47
2022-12-27T15:08:41.319Z,3.75
2022-12-27T15:11:25.576Z,4.45
2022-12-27T15:14:24.060Z,4.15
2022-12-27T15:17:06.453Z,6.40
2022-12-27T15:19:45.080Z,3.80
2022-12-27T15:22:50.604Z,3.53
2022-12-27T15:25:39.725Z,4.05
2022-12-27T15:28:19.077Z,5.93
2022-12-27T15:30:55.175Z,7.85
2022-12-27T15:33:31.413Z,12.98
2022-12-27T15:36:13.499Z,6.72
2022-12-27T15:38:54.120Z,5.25
2022-12-27T15:41:43.608Z,4.75
2022-12-27T15:44:49.761Z,7.23
2022-12-27T15:47:31.829Z,6.18
2022-12-27T15:50:43.631Z,4.90
2022-12-27T15:53:21.047Z,6.45
2022-12-27T15:56:09.960Z,15.90
2022-12-27T15:58:37.637Z,5.93
2022-12-27T16:01:23.964Z,11.05
2022-12-27T16:03:53.937Z,15.85
2022-12-27T16:06:36.580Z,14.32
2022-12-27T16:09:35.682Z,16.02
2022-12-27T16:12:13.717Z,5.10
2022-12-27T16:14:43.036Z,4.22
2022-12-27T16:17:30.984Z,18.60
2022-12-27T16:20:03.047Z,41.92
2022-12-27T16:22:35.367Z,35.97
2022-12-27T16:25:35.623Z,36.63
2022-12-27T16:28:11.974Z,49.50
2022-12-27T16:30:52.072Z,23.75
2022-12-27T16:33:37.745Z,30.67
2022-12-27T16:36:14.292Z,13.68
2022-12-27T16:38:56.894Z,21.90
2022-12-27T16:41:55.756Z,16.08
2022-12-27T16:44:26.406Z,22.98
2022-12-27T16:46:59.835Z,6.80
2022-12-27T16:49:33.155Z,5.88
2022-12-27T16:52:13.293Z,7.72
2022-12-27T16:54:59.131Z,5.40
2022-12-27T16:57:27.080Z,9.88
2022-12-27T17:00:05.653Z,10.95
2022-12-27T17:02:44.485Z,21.08
2022-12-27T17:05:15.246Z,14.82
2022-12-27T17:07:55.709Z,14.38
2022-12-27T17:10:34.929Z,13.57
2022-12-27T17:13:11.321Z,9.13
2022-12-27T17:16:06.289Z,6.50
2022-12-27T17:18:47.262Z,6.28
2022-12-27T17:21:32.799Z,6.18
2022-12-27T17:24:18.952Z,8.20
2022-12-27T17:26:46.190Z,7.00
2022-12-27T17:29:38.141Z,6.97
2022-12-27T17:32:17.822Z,10.98
2022-12-27T17:35:00.140Z,8.98
2022-12-27T17:37:51.874Z,11.73
2022-12-27T17:40:44.965Z,9.32
2022-12-27T17:43:30.892Z,11.88
2022-12-27T17:46:28.893Z,20.33
2022-12-27T17:48:56.947Z,9.13
2022-12-27T17:51:27.598Z,7.57
2022-12-27T17:54:14.743Z,10.15
2022-12-27T17:57:15.322Z,9.55
2022-12-27T17:59:45.884Z,11.45
2022-12-27T18:02:24.463Z,8.85
2022-12-27T18:04:54.828Z,6.20
2022-12-27T18:07:25.123Z,7.32
2022-12-27T18:10:01.105Z,7.80
2022-12-27T18:12:31.710Z,9.20
2022-12-27T18:15:03.415Z,6.95
2022-12-27T18:17:39.198Z,4.97
2022-12-27T18:20:28.650Z,6.25
2022-12-27T18:23:01.763Z,6.75
2022-12-27T18:25:40.306Z,6.60
2022-12-27T18:28:34.534Z,6.32
2022-12-27T18:31:26.644Z,7.13
2022-12-27T18:34:07.014Z,5.63
2022-12-27T18:36:42.185Z,5.95
2022-12-27T18:39:35.627Z,6.10
2022-12-27T18:42:06.884Z,9.25
2022-12-27T18:44:45.780Z,16.17
2022-12-27T18:47:22.365Z,5.63
2022-12-27T18:50:01.765Z,6.25
2022-12-27T18:52:35.082Z,9.05
2022-12-27T18:55:29.050Z,7.78
2022-12-27T18:58:20.607Z,5.75
2022-12-27T19:00:54.874Z,7.38
2022-12-27T19:03:22.216Z,8.45
2022-12-27T19:05:58.222Z,5.97
2022-12-27T19:08:31.901Z,7.25
2022-12-27T19:10:59.126Z,7.05
2022-12-27T19:13:39.946Z,7.65
2022-12-27T19:16:08.399Z,5.80
2022-12-27T19:18:38.410Z,8.30
2022-12-27T19:21:06.948Z,6.43
2022-12-27T19:23:37.325Z,6.28
2022-12-27T19:26:30.125Z,7.70
2022-12-27T19:29:13.704Z,4.45
2022-12-27T19:31:51.431Z,6.88
2022-12-27T19:34:21.017Z,8.38
2022-12-27T19:36:49.296Z,9.75
2022-12-27T19:39:36.829Z,6.50
2022-12-27T19:42:07.252Z,8.65
2022-12-27T19:44:34.713Z,8.35
2022-12-27T19:47:02.042Z,7.20
2022-12-27T19:49:43.100Z,17.13
2022-12-27T19:52:26.928Z,13.10
2022-12-27T19:55:02.339Z,14.10
2022-12-27T19:57:29.607Z,16.25
2022-12-27T19:59:56.961Z,9.50
2022-12-27T20:02:24.575Z,14.82
2022-12-27T20:04:52.241Z,9.45
2022-12-27T20:07:24.318Z,10.25
2022-12-27T20:09:51.626Z,9.25
2022-12-27T20:12:18.918Z,13.55
2022-12-27T20:14:47.394Z,9.18
2022-12-27T20:17:14.907Z,7.68
2022-12-27T20:19:42.374Z,8.98
2022-12-27T20:22:09.594Z,11.63
2022-12-27T20:24:37.983Z,8.85
2022-12-27T20:27:05.928Z,7.50
2022-12-27T20:29:33.229Z,9.38
2022-12-27T20:32:00.689Z,7.97
2022-12-27T20:34:28.030Z,9.27
2022-12-27T20:36:55.569Z,8.52
2022-12-27T20:39:22.823Z,8.77
2022-12-27T20:41:50.100Z,8.73
2022-12-27T20:44:18.400Z,10.65
2022-12-27T20:46:47.605Z,7.18
2022-12-27T20:49:15.106Z,7.57
2022-12-27T20:51:42.467Z,7.45
2022-12-27T20:54:12.160Z,9.50
2022-12-27T20:56:39.635Z,7.43
2022-12-27T20:59:07.140Z,8.85
2022-12-27T21:01:34.543Z,10.63
2022-12-27T21:04:02.529Z,8.85
2022-12-27T21:06:29.962Z,9.50
2022-12-27T21:08:58.593Z,13.48
2022-12-27T21:11:28.973Z,11.18
2022-12-27T21:13:56.450Z,10.90
2022-12-27T21:16:28.783Z,9.80
2022-12-27T21:18:56.671Z,9.80
2022-12-27T21:21:28.496Z,10.13
2022-12-27T21:24:00.209Z,7.18
2022-12-27T21:26:30.441Z,8.65
2022-12-27T21:28:58.792Z,11.63
2022-12-27T21:31:26.896Z,8.27
2022-12-27T21:33:54.348Z,7.40
2022-12-27T21:36:27.381Z,12.48
2022-12-27T21:38:55.279Z,8.00
2022-12-27T21:41:31.807Z,7.50
2022-12-27T21:43:59.681Z,10.98
2022-12-27T21:46:32.087Z,7.47
2022-12-27T21:49:05.123Z,10.27
2022-12-27T21:51:33.462Z,9.77
2022-12-27T21:54:01.960Z,8.32
2022-12-27T21:56:30.068Z,7.82
2022-12-27T21:58:59.263Z,7.15
2022-12-27T22:01:29.689Z,7.90
2022-12-27T22:03:58.578Z,7.55
2022-12-27T22:06:28.587Z,10.65
2022-12-27T22:11:28.231Z,24.05
2022-12-27T22:13:55.884Z,18.98
2022-12-27T22:16:25.625Z,15.27
2022-12-27T22:18:55.899Z,28.25
2022-12-27T22:21:27.143Z,26.35
2022-12-27T22:23:57.020Z,15.60
2022-12-27T22:26:26.869Z,11.32
2022-12-27T22:28:54.249Z,17.70
2022-12-27T22:31:27.584Z,16.60
2022-12-27T22:33:54.841Z,14.20
2022-12-27T22:36:24.725Z,11.88
2022-12-27T22:38:54.378Z,18.17
2022-12-27T22:41:27.929Z,13.60
2022-12-27T22:44:10.078Z,11.77
2022-12-27T22:49:26.059Z,11.50
2022-12-27T22:51:53.438Z,10.20
2022-12-27T22:54:20.723Z,11.02
2022-12-27T22:57:08.073Z,20.55
2022-12-27T22:59:35.281Z,20.15
2022-12-27T23:02:02.594Z,25.52
2022-12-27T23:04:30.383Z,26.25
2022-12-27T23:07:01.708Z,23.95
2022-12-27T23:09:29.427Z,21.48
2022-12-27T23:11:56.628Z,19.90
2022-12-27T23:14:23.868Z,18.83
2022-12-27T23:16:51.220Z,18.17
2022-12-27T23:19:21.061Z,20.13
2022-12-27T23:21:48.936Z,21.23
2022-12-27T23:24:16.754Z,25.58
2022-12-27T23:26:44.030Z,32.58
2022-12-27T23:29:13.166Z,23.80
2022-12-27T23:31:54.723Z,24.45
2022-12-27T23:34:28.809Z,24.77
2022-12-27T23:36:58.297Z,27.33
2022-12-27T23:39:26.300Z,31.88
2022-12-27T23:41:53.620Z,25.25
2022-12-27T23:44:34.047Z,18.83
2022-12-27T23:47:06.449Z,16.08
2022-12-27T23:49:34.579Z,19.30
2022-12-27T23:52:02.327Z,18.27
2022-12-27T23:54:29.845Z,33.55
2022-12-27T23:56:57.335Z,37.55
2022-12-27T23:59:24.772Z,44.08
